Time;durP1;ratioP1;P1;durP2;ratioP2;P2;SDS_P1;SDS_P2;PMS_P1;PMS_P2;Temp;Humidity;BMP_temperature;BMP_pressure;BME280_temperature;BME280_humidity;BME280_pressure;Samples;Min_cycle;Max_cycle;Signal;HPM_P1;HPM_P2
2022/03/01 00:00:05;;;;;;;15.70;3.90;;;;;;;-2.66;100.00;102300.03;5053028;28;20036;-86
2022/03/01 00:02:30;;;;;;;10.02;3.92;;;;;;;-2.67;100.00;102298.31;5074494;28;20123;-85
2022/03/01 00:04:56;;;;;;;10.18;3.25;;;;;;;-2.66;100.00;102292.13;5040098;28;20115;-85
2022/03/01 00:07:22;;;;;;;8.15;3.58;;;;;;;-2.71;100.00;102280.91;5050256;28;20051;-85
2022/03/01 00:09:47;;;;;;;14.98;4.70;;;;;;;-2.66;100.00;102301.81;5027195;28;20462;-85
2022/03/01 00:12:13;;;;;;;7.13;3.78;;;;;;;-2.69;100.00;102304.56;5059784;28;20039;-84
2022/03/01 00:14:39;;;;;;;11.70;3.70;;;;;;;-2.71;100.00;102295.84;5065740;28;20029;-84
2022/03/01 00:17:04;;;;;;;9.93;2.83;;;;;;;-2.62;100.00;102307.81;5041345;28;20047;-86
2022/03/01 00:19:30;;;;;;;7.45;3.42;;;;;;;-2.71;100.00;102295.84;5044641;28;20044;-84
2022/03/01 00:21:56;;;;;;;8.13;2.58;;;;;;;-2.72;100.00;102308.16;5019904;28;20036;-82
2022/03/01 00:24:22;;;;;;;8.38;2.45;;;;;;;-2.75;100.00;102310.91;5033660;28;20036;-84
2022/03/01 00:26:48;;;;;;;4.72;2.33;;;;;;;-2.77;100.00;102312.72;5034387;28;20411;-84
2022/03/01 00:29:13;;;;;;;6.80;2.65;;;;;;;-2.75;100.00;102310.00;5044656;28;20454;-85
2022/03/01 00:31:39;;;;;;;7.07;2.60;;;;;;;-2.66;100.00;102314.97;5033246;28;20094;-84
2022/03/01 00:34:05;;;;;;;11.43;3.03;;;;;;;-2.77;100.00;102302.19;5029174;28;20512;-83
2022/03/01 00:36:31;;;;;;;6.35;2.72;;;;;;;-2.81;100.00;102311.09;5062099;28;20385;-84
2022/03/01 00:38:56;;;;;;;4.90;2.20;;;;;;;-2.94;100.00;102296.59;5044554;28;20067;-84
2022/03/01 00:41:22;;;;;;;7.32;2.47;;;;;;;-2.90;100.00;102312.25;5040295;28;20061;-84
2022/03/01 00:43:48;;;;;;;7.53;2.53;;;;;;;-2.61;100.00;102309.56;5055596;28;20455;-84
2022/03/01 00:46:13;;;;;;;4.32;2.35;;;;;;;-2.02;100.00;102307.41;5032006;28;20078;-85
2022/03/01 00:48:39;;;;;;;4.75;2.13;;;;;;;-1.94;100.00;102307.13;5017665;28;20068;-84
2022/03/01 00:51:05;;;;;;;6.28;2.80;;;;;;;-2.31;100.00;102281.28;5046594;28;20115;-84
2022/03/01 00:53:31;;;;;;;8.50;3.03;;;;;;;-2.43;100.00;102311.56;5046458;28;20028;-85
2022/03/01 00:55:57;;;;;;;7.88;2.63;;;;;;;-2.59;100.00;102320.88;5049086;28;20032;-84
2022/03/01 00:58:23;;;;;;;4.53;2.20;;;;;;;-2.78;100.00;102308.38;5049295;28;20044;-85
2022/03/01 01:00:51;;;;;;;7.57;2.70;;;;;;;-2.75;100.00;102329.31;5065875;28;20032;-84
2022/03/01 01:03:19;;;;;;;8.82;2.83;;;;;;;-2.85;100.00;102329.69;5048919;28;20044;-84
2022/03/01 01:05:44;;;;;;;8.63;2.58;;;;;;;-2.92;100.00;102340.41;5047675;28;20036;-85
2022/03/01 01:08:10;;;;;;;7.47;2.92;;;;;;;-3.03;100.00;102318.84;5029707;28;20036;-83
2022/03/01 01:10:36;;;;;;;9.77;2.25;;;;;;;-2.96;100.00;102340.56;5065559;28;20033;-83
2022/03/01 01:13:01;;;;;;;4.47;2.47;;;;;;;-3.08;100.00;102331.28;5032816;28;20449;-84
2022/03/01 01:15:30;;;;;;;5.50;2.30;;;;;;;-3.28;100.00;102310.88;5034275;28;20032;-85
2022/03/01 01:17:55;;;;;;;4.95;2.60;;;;;;;-3.13;100.00;102349.84;5060931;28;20397;-87
2022/03/01 01:20:21;;;;;;;4.78;2.40;;;;;;;-3.23;100.00;102335.25;5031841;28;20029;-85
2022/03/01 01:22:47;;;;;;;0.50;0.50;;;;;;;-3.09;100.00;102348.00;5025173;28;20044;-84
2022/03/01 01:25:13;;;;;;;7.88;2.45;;;;;;;-2.98;100.00;102345.00;5041913;28;20473;-81
2022/03/01 01:27:40;;;;;;;6.00;2.80;;;;;;;-2.87;100.00;102354.25;5047833;28;20037;-83
2022/03/01 01:30:12;;;;;;;10.50;3.63;;;;;;;-2.94;100.00;102351.88;5061384;28;20046;-85
2022/03/01 01:32:38;;;;;;;5.93;2.63;;;;;;;-3.07;100.00;102359.31;5049830;28;20469;-85
2022/03/01 01:35:05;;;;;;;12.82;3.42;;;;;;;-3.13;100.00;102356.88;5058269;28;20035;-84
2022/03/01 01:37:31;;;;;;;6.50;2.88;;;;;;;-3.15;100.00;102351.69;5046635;28;20123;-85
2022/03/01 01:40:27;;;;;;;5.78;2.58;;;;;;;-3.19;100.00;102350.03;5033805;28;20033;-84
2022/03/01 01:42:53;;;;;;;10.27;3.10;;;;;;;-3.08;100.00;102372.53;5065266;28;20053;-85
2022/03/01 01:45:20;;;;;;;7.40;3.13;;;;;;;-3.03;100.00;102384.63;5034585;28;20043;-84
2022/03/01 01:47:47;;;;;;;7.82;2.72;;;;;;;-3.04;100.00;102376.75;5029119;28;20469;-84
2022/03/01 01:50:13;;;;;;;6.00;2.65;;;;;;;-3.17;100.00;102365.78;5050985;28;20131;-85
2022/03/01 01:52:39;;;;;;;10.70;3.00;;;;;;;-3.22;100.00;102365.94;5046410;28;20142;-85
2022/03/01 01:55:05;;;;;;;6.88;3.80;;;;;;;-3.23;100.00;102390.50;5030597;28;20021;-83
2022/03/01 01:57:31;;;;;;;6.15;3.00;;;;;;;-3.20;100.00;102385.16;5063296;28;20109;-85
2022/03/01 01:59:57;;;;;;;12.40;4.38;;;;;;;-3.10;100.00;102399.75;5049512;28;20458;-84
2022/03/01 02:02:28;;;;;;;11.32;4.93;;;;;;;-3.10;100.00;102390.97;5043169;28;20524;-84
2022/03/01 02:04:53;;;;;;;8.38;3.60;;;;;;;-3.21;100.00;102401.84;5062104;28;20036;-84
2022/03/01 02:07:19;;;;;;;13.32;5.18;;;;;;;-3.40;100.00;102395.41;5051588;28;20024;-83
2022/03/01 02:09:45;;;;;;;15.38;5.57;;;;;;;-3.53;100.00;102406.28;5031521;28;20120;-82
2022/03/01 02:12:10;;;;;;;6.68;3.95;;;;;;;-3.55;100.00;102410.75;5051938;28;20060;-84
2022/03/01 02:29:20;;;;;;;11.43;4.88;;;;;;;-3.24;100.00;102415.09;5063603;28;20031;-83
2022/03/01 02:31:45;;;;;;;9.05;5.60;;;;;;;-3.28;100.00;102410.84;5064290;28;20111;-83
2022/03/01 02:34:11;;;;;;;13.70;6.15;;;;;;;-3.43;100.00;102385.00;5051677;28;20531;-83
2022/03/01 02:36:36;;;;;;;11.10;4.70;;;;;;;-3.33;100.00;102407.50;5063788;28;20031;-84
2022/03/01 02:39:05;;;;;;;13.77;4.63;;;;;;;-3.28;100.00;102418.75;5034476;28;20635;-82
2022/03/01 02:41:31;;;;;;;13.45;4.63;;;;;;;-3.34;100.00;102419.75;5036558;28;20020;-84
2022/03/01 02:43:57;;;;;;;5.72;2.40;;;;;;;-3.46;100.00;102403.50;5045991;28;20037;-83
2022/03/01 02:46:22;;;;;;;8.63;3.42;;;;;;;-3.38;100.00;102409.41;5029455;28;20032;-85
2022/03/01 02:48:48;;;;;;;5.78;2.72;;;;;;;-3.37;100.00;102397.94;5032063;28;20063;-82
2022/03/01 02:51:14;;;;;;;8.32;3.58;;;;;;;-3.29;100.00;102409.09;5063284;28;20035;-83
2022/03/01 02:53:39;;;;;;;9.23;3.15;;;;;;;-3.40;100.00;102403.31;5041295;28;20123;-83
2022/03/01 02:56:05;;;;;;;7.63;3.38;;;;;;;-3.48;100.00;102387.75;5035361;28;20079;-84
2022/03/01 02:58:31;;;;;;;4.85;2.08;;;;;;;-3.39;100.00;102403.25;5048556;28;20059;-85
2022/03/01 03:00:57;;;;;;;6.35;3.10;;;;;;;-3.43;100.00;102398.16;5052094;28;20032;-83
2022/03/01 03:03:22;;;;;;;4.50;2.30;;;;;;;-3.53;100.00;102395.78;5041743;28;20037;-84
2022/03/01 03:05:48;;;;;;;3.58;1.83;;;;;;;-3.59;100.00;102398.59;5036189;28;20036;-83
2022/03/01 03:08:13;;;;;;;7.88;2.45;;;;;;;-3.54;100.00;102409.84;5026791;28;20041;-84
2022/03/01 03:10:39;;;;;;;5.20;2.47;;;;;;;-3.59;100.00;102408.25;5029196;28;20055;-83
2022/03/01 03:13:05;;;;;;;8.40;2.42;;;;;;;-3.58;100.00;102418.69;5065139;28;20404;-83
2022/03/01 03:15:31;;;;;;;4.40;2.13;;;;;;;-3.64;100.00;102397.84;5031506;28;20036;-81
2022/03/01 03:17:57;;;;;;;2.38;1.67;;;;;;;-3.56;100.00;102419.53;5060138;28;20052;-85
2022/03/01 03:20:23;;;;;;;2.97;1.60;;;;;;;-3.62;100.00;102416.22;5046396;28;20064;-84
2022/03/01 03:22:50;;;;;;;3.95;2.30;;;;;;;-3.65;100.00;102405.78;5056347;28;20090;-84
2022/03/01 03:25:15;;;;;;;10.00;2.33;;;;;;;-3.56;100.00;102414.28;5057312;28;20036;-84
2022/03/01 03:27:41;;;;;;;6.13;2.35;;;;;;;-3.71;100.00;102388.41;5025313;28;20663;-85
2022/03/01 03:30:09;;;;;;;6.82;2.17;;;;;;;-3.62;100.00;102409.19;5047629;28;20038;-85
2022/03/01 03:32:34;;;;;;;3.50;2.10;;;;;;;-3.68;100.00;102397.97;5039127;28;20044;-83
2022/03/01 03:35:00;;;;;;;10.15;3.00;;;;;;;-3.69;100.00;102410.28;5046880;28;20024;-82
2022/03/01 03:37:32;;;;;;;4.18;2.15;;;;;;;-3.83;100.00;102394.03;5030962;28;20040;-84
2022/03/01 03:40:01;;;;;;;2.78;1.65;;;;;;;-3.79;100.00;102399.16;5049573;28;20135;-85
2022/03/01 03:42:26;;;;;;;5.60;2.53;;;;;;;-3.79;100.00;102382.53;5063573;28;20538;-84
2022/03/01 03:44:52;;;;;;;5.95;2.95;;;;;;;-3.67;100.00;102392.69;5068514;28;20024;-84
2022/03/01 03:47:17;;;;;;;5.38;1.33;;;;;;;-3.69;100.00;102399.75;5029607;28;20037;-83
2022/03/01 03:49:43;;;;;;;2.58;2.40;;;;;;;-3.65;100.00;102398.78;5051375;28;20044;-84
2022/03/01 03:52:09;;;;;;;1.83;1.42;;;;;;;-3.54;100.00;102395.84;5046794;28;20109;-86
2022/03/01 03:54:34;;;;;;;8.55;2.08;;;;;;;-3.47;100.00;102399.13;5043068;28;20127;-84
2022/03/01 03:57:07;;;;;;;8.15;2.15;;;;;;;-3.53;100.00;102408.91;5047305;28;20020;-83
2022/03/01 03:59:34;;;;;;;1.80;1.58;;;;;;;-3.54;100.00;102401.94;5064052;28;20033;-85
2022/03/01 04:02:01;;;;;;;4.40;2.13;;;;;;;-3.60;100.00;102399.50;5049469;28;20029;-83
2022/03/01 04:04:27;;;;;;;5.18;2.05;;;;;;;-3.64;100.00;102400.50;5064066;28;20482;-82
2022/03/01 04:06:52;;;;;;;13.07;4.53;;;;;;;-3.77;100.00;102380.72;5045056;28;20043;-84
2022/03/01 04:09:18;;;;;;;6.43;3.33;;;;;;;-3.75;100.00;102394.69;5055511;28;20125;-84
2022/03/01 04:11:43;;;;;;;10.50;3.05;;;;;;;-3.78;100.00;102406.16;5065349;28;20025;-84
2022/03/01 04:14:09;;;;;;;10.68;3.75;;;;;;;-3.73;100.00;102416.53;5048140;28;20040;-83
2022/03/01 04:16:35;;;;;;;6.90;2.65;;;;;;;-3.72;100.00;102420.88;5045400;28;20036;-84
2022/03/01 04:19:00;;;;;;;8.98;4.10;;;;;;;-3.79;100.00;102419.31;5032207;28;20064;-82
2022/03/01 04:21:29;;;;;;;7.10;2.83;;;;;;;-3.85;100.00;102419.50;5025362;28;20036;-84
2022/03/01 04:23:54;;;;;;;7.47;2.60;;;;;;;-3.82;100.00;102420.25;5063287;28;20131;-82
2022/03/01 04:26:20;;;;;;;7.18;2.70;;;;;;;-3.86;100.00;102418.63;5057452;28;20103;-83
2022/03/01 04:28:45;;;;;;;7.70;2.60;;;;;;;-3.93;100.00;102416.22;5067031;28;22200;-84
2022/03/01 04:31:11;;;;;;;6.63;2.08;;;;;;;-4.03;100.00;102405.94;5033534;28;20025;-84
2022/03/01 04:33:37;;;;;;;3.22;1.90;;;;;;;-4.03;100.00;102426.97;5045223;28;20029;-86
2022/03/01 04:36:03;;;;;;;10.32;2.65;;;;;;;-4.16;100.00;102416.81;5051701;28;20024;-85
2022/03/01 04:38:29;;;;;;;1.73;1.48;;;;;;;-4.22;100.00;102423.97;5069657;28;20362;-83
2022/03/01 04:40:56;;;;;;;6.85;2.13;;;;;;;-4.29;100.00;102395.28;5038896;28;20041;-85
2022/03/01 04:43:22;;;;;;;3.70;1.65;;;;;;;-4.15;100.00;102402.78;5055191;28;20038;-83
2022/03/01 04:45:48;;;;;;;8.38;2.00;;;;;;;-4.06;100.00;102413.91;5058665;28;20028;-84
2022/03/01 04:48:14;;;;;;;6.47;2.00;;;;;;;-4.01;100.00;102419.91;5034040;28;20043;-85
2022/03/01 04:50:43;;;;;;;6.15;2.15;;;;;;;-4.09;100.00;102405.25;5047973;28;20108;-84
2022/03/01 04:53:10;;;;;;;12.25;1.90;;;;;;;-4.01;100.00;102405.91;5035655;28;20068;-84
2022/03/01 04:55:37;;;;;;;4.72;2.30;;;;;;;-3.89;100.00;102420.47;5041627;28;20477;-84
2022/03/01 04:58:03;;;;;;;3.85;1.60;;;;;;;-3.90;100.00;102405.63;5041774;28;20120;-83
2022/03/01 05:00:29;;;;;;;7.03;1.98;;;;;;;-3.99;100.00;102390.97;5062556;28;20025;-84
2022/03/01 05:02:54;;;;;;;2.20;1.55;;;;;;;-3.99;100.00;102393.59;5040379;28;20107;-85
2022/03/01 05:05:20;;;;;;;3.10;1.30;;;;;;;-3.99;100.00;102399.72;5067638;28;20025;-83
2022/03/01 05:07:50;;;;;;;2.70;1.25;;;;;;;-3.95;100.00;102395.22;5033830;28;20036;-83
2022/03/01 05:10:20;;;;;;;7.40;1.98;;;;;;;-3.92;100.00;102396.91;5028494;28;20040;-82
2022/03/01 05:12:51;;;;;;;5.88;1.83;;;;;;;-3.92;100.00;102407.41;5045068;28;20032;-84
2022/03/01 05:15:17;;;;;;;5.13;1.48;;;;;;;-3.86;100.00;102404.66;5041910;28;20048;-84
2022/03/01 05:17:43;;;;;;;4.13;1.45;;;;;;;-4.16;100.00;102357.25;5047617;28;20493;-84
2022/03/01 05:20:10;;;;;;;4.95;1.45;;;;;;;-3.81;100.00;102400.97;5042999;28;20070;-84
2022/03/01 05:22:36;;;;;;;3.40;1.45;;;;;;;-3.81;100.00;102382.59;5034964;28;20036;-83
2022/03/01 05:25:03;;;;;;;6.90;1.98;;;;;;;-3.73;100.00;102392.88;5062383;28;20488;-84
2022/03/01 05:27:29;;;;;;;3.25;1.42;;;;;;;-3.71;100.00;102392.81;5045794;28;20489;-84
2022/03/01 05:29:57;;;;;;;6.93;2.05;;;;;;;-3.67;100.00;102397.94;5047984;28;20086;-84
2022/03/01 05:32:22;;;;;;;5.75;2.35;;;;;;;-3.71;100.00;102398.94;5049149;28;20131;-83
2022/03/01 05:34:49;;;;;;;9.98;2.42;;;;;;;-3.95;100.00;102394.38;5051111;28;20123;-83
2022/03/01 05:37:15;;;;;;;4.97;2.13;;;;;;;-4.16;100.00;102395.81;5064233;28;20073;-85
2022/03/01 05:39:41;;;;;;;9.50;2.47;;;;;;;-4.33;100.00;102396.25;5045157;28;20032;-83
2022/03/01 05:42:08;;;;;;;3.13;1.60;;;;;;;-4.31;100.00;102402.31;5031707;28;20032;-84
2022/03/01 05:44:34;;;;;;;10.45;2.17;;;;;;;-4.30;100.00;102404.06;5062327;28;20033;-83
2022/03/01 05:46:59;;;;;;;4.13;1.90;;;;;;;-4.45;100.00;102384.31;5031270;28;20038;-84
2022/03/01 05:49:25;;;;;;;3.00;2.15;;;;;;;-4.44;100.00;102397.41;5049485;28;20029;-83
2022/03/01 05:51:51;;;;;;;5.97;2.00;;;;;;;-4.37;100.00;102402.50;5034567;28;20042;-84
2022/03/01 05:54:16;;;;;;;6.82;2.20;;;;;;;-4.23;100.00;102392.50;5049067;28;20020;-85
2022/03/01 05:56:42;;;;;;;2.25;1.65;;;;;;;-4.16;100.00;102393.19;5030775;28;20047;-83
2022/03/01 05:59:08;;;;;;;8.10;2.38;;;;;;;-4.07;100.00;102385.94;5031347;28;20086;-84
2022/03/01 06:01:34;;;;;;;3.65;2.22;;;;;;;-3.90;100.00;102398.59;5032091;28;20037;-84
2022/03/01 06:03:59;;;;;;;6.20;1.88;;;;;;;-3.94;100.00;102385.56;5048195;28;20056;-83
2022/03/01 06:06:25;;;;;;;2.30;1.38;;;;;;;-3.94;100.00;102403.97;5047092;28;20033;-83
2022/03/01 06:08:51;;;;;;;1.98;1.75;;;;;;;-4.11;100.00;102392.16;5050106;28;20037;-84
2022/03/01 06:11:16;;;;;;;5.70;2.25;;;;;;;-4.11;100.00;102396.56;5061924;28;20032;-84
2022/03/01 06:13:43;;;;;;;4.65;2.17;;;;;;;-4.23;100.00;102393.34;5062237;28;20040;-83
2022/03/01 06:16:09;;;;;;;6.30;2.38;;;;;;;-4.29;100.00;102401.38;5036056;28;20524;-83
2022/03/01 06:18:35;;;;;;;3.67;2.17;;;;;;;-4.37;100.00;102408.59;5064070;28;20035;-84
2022/03/01 06:21:01;;;;;;;4.18;1.90;;;;;;;-4.36;100.00;102407.72;5051390;28;20503;-83
2022/03/01 06:23:27;;;;;;;5.47;2.05;;;;;;;-4.49;100.00;102407.16;5025381;28;20370;-83
2022/03/01 06:25:53;;;;;;;4.43;2.50;;;;;;;-4.69;100.00;102388.41;5032579;28;20040;-82
2022/03/01 06:28:19;;;;;;;7.90;2.75;;;;;;;-4.59;100.00;102412.69;5051399;28;20029;-83
2022/03/01 06:30:48;;;;;;;0.80;0.80;;;;;;;-4.65;100.00;102414.56;5044648;28;20031;-84
2022/03/01 06:33:13;;;;;;;8.80;3.25;;;;;;;-4.66;100.00;102417.19;5047517;28;20141;-83
2022/03/01 06:35:39;;;;;;;5.97;1.40;;;;;;;-4.74;100.00;102413.91;5049401;28;20493;-82
2022/03/01 06:38:05;;;;;;;3.28;2.10;;;;;;;-4.71;100.00;102416.44;5029489;28;20029;-83
2022/03/01 06:40:31;;;;;;;5.93;1.00;;;;;;;-4.59;100.00;102441.56;5068990;28;21633;-83
2022/03/01 06:42:56;;;;;;;3.10;1.52;;;;;;;-4.49;100.00;102428.16;5051184;28;20118;-83
2022/03/01 06:45:22;;;;;;;4.63;2.05;;;;;;;-4.27;100.00;102444.22;5053141;28;20048;-82
2022/03/01 06:47:48;;;;;;;3.90;2.63;;;;;;;-4.36;100.00;102438.38;5038536;28;20111;-82
2022/03/01 06:50:14;;;;;;;7.40;2.35;;;;;;;-4.56;100.00;102438.84;5068868;28;20616;-83
2022/03/01 06:52:39;;;;;;;4.63;1.95;;;;;;;-4.72;100.00;102443.59;5033236;28;20116;-82
2022/03/01 06:55:07;;;;;;;5.00;2.30;;;;;;;-4.83;100.00;102448.25;5062511;28;20470;-83
2022/03/01 06:57:33;;;;;;;10.73;3.30;;;;;;;-4.93;100.00;102458.06;5048190;28;20178;-82
2022/03/01 06:59:58;;;;;;;4.93;2.10;;;;;;;-5.03;100.00;102452.16;5027889;28;20182;-83
2022/03/01 07:02:27;;;;;;;5.57;1.88;;;;;;;-5.17;100.00;102431.50;5050656;28;20051;-82
2022/03/01 07:04:54;;;;;;;6.53;2.67;;;;;;;-5.04;100.00;102454.84;5027684;28;20039;-84
2022/03/01 07:07:22;;;;;;;7.82;1.95;;;;;;;-5.04;100.00;102452.22;5062162;28;20024;-82
2022/03/01 07:09:47;;;;;;;6.72;1.83;;;;;;;-4.97;100.00;102459.91;5030775;28;20127;-83
2022/03/01 07:12:13;;;;;;;2.97;1.58;;;;;;;-4.83;100.00;102462.22;5039638;28;20085;-84
2022/03/01 07:14:38;;;;;;;3.53;1.90;;;;;;;-4.72;100.00;102454.09;5041203;28;20046;-82
2022/03/01 07:17:04;;;;;;;5.13;2.67;;;;;;;-4.61;100.00;102465.19;5059087;28;20017;-82
2022/03/01 07:19:30;;;;;;;3.88;1.55;;;;;;;-4.54;100.00;102469.41;5056300;28;20041;-83
2022/03/01 07:21:55;;;;;;;3.08;1.42;;;;;;;-4.51;100.00;102465.84;5027130;28;20033;-82
2022/03/01 07:24:21;;;;;;;1.20;0.95;;;;;;;-4.31;100.00;102473.22;5030580;28;20039;-82
2022/03/01 07:26:46;;;;;;;7.97;1.70;;;;;;;-4.14;100.00;102467.56;5040852;28;20032;-83
2022/03/01 07:29:12;;;;;;;1.30;1.08;;;;;;;-4.09;100.00;102471.78;5031278;28;20028;-83
2022/03/01 07:31:38;;;;;;;1.65;1.35;;;;;;;-4.10;100.00;102456.94;5046969;28;20035;-83
2022/03/01 07:34:03;;;;;;;4.65;1.67;;;;;;;-4.01;100.00;102476.84;5052459;28;20048;-82
2022/03/01 07:36:29;;;;;;;9.32;2.25;;;;;;;-4.16;100.00;102451.81;5059690;28;20028;-82
2022/03/01 07:38:55;;;;;;;2.70;1.02;;;;;;;-4.06;100.00;102463.84;5029889;28;20035;-82
2022/03/01 07:41:21;;;;;;;2.40;1.30;;;;;;;-3.92;100.00;102457.34;5047258;28;20363;-83
2022/03/01 07:43:47;;;;;;;1.83;1.50;;;;;;;-3.71;100.00;102464.66;5046577;28;20123;-83
2022/03/01 07:46:13;;;;;;;1.30;0.93;;;;;;;-3.63;100.00;102467.91;5044875;28;20560;-82
2022/03/01 07:48:40;;;;;;;5.05;2.25;;;;;;;-3.56;100.00;102468.63;5063679;28;20517;-83
2022/03/01 07:51:06;;;;;;;2.22;1.10;;;;;;;-3.39;100.00;102461.09;5049888;28;20028;-83
2022/03/01 07:53:32;;;;;;;4.65;1.75;;;;;;;-3.27;100.00;102469.56;5051546;28;20138;-84
2022/03/01 07:55:57;;;;;;;7.32;1.60;;;;;;;-3.37;100.00;102442.66;5047032;28;20147;-82
2022/03/01 07:58:23;;;;;;;6.47;2.55;;;;;;;-3.19;100.00;102454.41;5046273;28;20118;-82
2022/03/01 08:00:49;;;;;;;4.38;1.60;;;;;;;-3.12;100.00;102456.81;5045797;28;20071;-83
2022/03/01 08:03:15;;;;;;;3.50;1.48;;;;;;;-2.98;100.00;102451.13;5029039;28;20509;-83
2022/03/01 08:05:41;;;;;;;2.55;1.02;;;;;;;-2.57;100.00;102456.84;5048121;28;20055;-83
2022/03/01 08:08:07;;;;;;;9.45;2.25;;;;;;;-2.10;100.00;102446.50;5059510;28;20460;-82
2022/03/01 08:10:32;;;;;;;10.60;2.22;;;;;;;-1.83;100.00;102451.75;5046017;28;20029;-84
2022/03/01 08:12:58;;;;;;;6.15;2.08;;;;;;;-1.74;100.00;102454.06;5028958;28;20028;-82
2022/03/01 08:15:26;;;;;;;3.65;2.17;;;;;;;-1.49;100.00;102463.72;5028062;28;20040;-84
2022/03/01 08:17:53;;;;;;;4.43;1.90;;;;;;;-1.12;100.00;102471.97;5056516;28;20040;-84
2022/03/01 08:20:19;;;;;;;10.85;2.67;;;;;;;-1.12;100.00;102469.34;5048758;28;20561;-83
2022/03/01 08:22:47;;;;;;;11.43;2.83;;;;;;;-0.89;100.00;102470.25;5041215;28;20451;-83
2022/03/01 08:25:15;;;;;;;16.70;3.55;;;;;;;-0.68;100.00;102465.91;5056437;28;20531;-83
2022/03/01 08:27:41;;;;;;;10.18;2.90;;;;;;;-0.40;100.00;102455.06;5048741;28;20066;-83
2022/03/01 08:30:07;;;;;;;14.80;3.25;;;;;;;0.09;100.00;102454.78;5019908;28;20036;-82
2022/03/01 08:32:33;;;;;;;4.88;2.65;;;;;;;0.42;100.00;102453.31;5064737;28;20090;-83
2022/03/01 08:34:59;;;;;;;11.32;2.42;;;;;;;0.37;100.00;102425.31;5058033;28;20029;-84
2022/03/01 08:37:25;;;;;;;5.20;2.05;;;;;;;1.35;100.00;102459.59;5046501;28;20071;-83
2022/03/01 08:39:50;;;;;;;10.13;2.58;;;;;;;2.29;100.00;102459.25;5061139;28;20151;-84
2022/03/01 08:42:16;;;;;;;9.40;2.67;;;;;;;2.95;98.73;102463.69;5063787;28;20431;-84
2022/03/01 08:44:41;;;;;;;7.65;2.53;;;;;;;3.37;96.20;102459.56;5058028;28;20028;-84
2022/03/01 08:47:07;;;;;;;11.82;3.30;;;;;;;3.85;93.50;102455.00;5050173;28;20093;-84
2022/03/01 08:49:33;;;;;;;14.38;4.03;;;;;;;4.63;90.24;102441.41;5061910;28;20040;-85
2022/03/01 08:51:58;;;;;;;27.20;5.20;;;;;;;5.37;86.16;102421.56;5079867;28;20073;-85
2022/03/01 08:54:24;;;;;;;15.50;3.80;;;;;;;6.33;82.52;102453.38;5047087;28;20124;-85
2022/03/01 08:56:50;;;;;;;4.28;2.50;;;;;;;6.94;80.60;102459.72;5048060;28;20120;-85
2022/03/01 08:59:16;;;;;;;12.18;2.75;;;;;;;7.38;79.01;102444.06;5033357;28;20466;-85
2022/03/01 09:01:41;;;;;;;8.13;2.47;;;;;;;7.78;77.77;102454.47;5050044;28;20025;-85
2022/03/01 09:04:09;;;;;;;6.38;1.85;;;;;;;7.42;80.05;102473.16;5050382;28;20115;-84
2022/03/01 09:06:41;;;;;;;6.47;2.63;;;;;;;5.78;86.49;102462.47;5031972;28;20060;-85
2022/03/01 09:09:09;;;;;;;4.10;1.92;;;;;;;7.11;83.00;102463.00;5030967;28;20086;-85
2022/03/01 09:11:35;;;;;;;6.70;2.05;;;;;;;8.23;79.80;102465.31;5031418;28;20481;-86
2022/03/01 09:14:01;;;;;;;5.55;1.85;;;;;;;9.19;76.24;102459.53;5032439;28;20055;-88
2022/03/01 09:16:26;;;;;;;4.93;1.80;;;;;;;9.63;74.56;102439.75;5068846;28;20032;-85
2022/03/01 09:18:52;;;;;;;7.47;2.53;;;;;;;10.33;73.62;102462.47;5069815;28;20041;-87
2022/03/01 09:21:18;;;;;;;9.93;2.60;;;;;;;10.78;71.93;102462.13;5064829;28;20033;-88
2022/03/01 09:23:44;;;;;;;3.42;1.75;;;;;;;11.10;70.18;102466.47;5036231;28;20705;-86
2022/03/01 09:26:10;;;;;;;14.77;3.00;;;;;;;11.18;70.08;102452.34;5033670;28;20770;-86
2022/03/01 09:28:36;;;;;;;5.90;2.70;;;;;;;11.38;70.08;102454.06;5040997;28;20037;-86
2022/03/01 09:31:02;;;;;;;3.78;2.47;;;;;;;11.43;70.18;102451.81;5032056;28;20041;-85
2022/03/01 09:33:28;;;;;;;7.63;2.05;;;;;;;11.99;68.83;102454.84;5065535;28;20032;-88
2022/03/01 09:35:53;;;;;;;5.22;1.90;;;;;;;12.09;67.88;102472.69;5056121;28;20088;-86
2022/03/01 09:38:19;;;;;;;6.88;2.45;;;;;;;12.19;70.28;102464.56;5049754;28;20504;-85
2022/03/01 09:40:47;;;;;;;9.32;2.50;;;;;;;12.77;69.63;102467.09;5048377;28;20032;-86
2022/03/01 09:43:13;;;;;;;11.77;2.78;;;;;;;13.16;67.88;102460.66;5064668;28;20036;-85
2022/03/01 09:45:38;;;;;;;4.25;1.55;;;;;;;13.56;66.43;102449.47;5054923;28;20044;-86
2022/03/01 09:48:04;;;;;;;6.65;2.20;;;;;;;13.67;65.58;102458.34;5030276;28;20029;-86
2022/03/01 09:50:30;;;;;;;6.57;1.73;;;;;;;13.68;65.53;102460.91;5053469;28;20127;-85
2022/03/01 09:53:01;;;;;;;5.85;2.00;;;;;;;13.54;65.54;102440.66;5046705;28;20043;-86
2022/03/01 09:55:27;;;;;;;9.38;2.53;;;;;;;13.85;65.47;102448.38;5050804;28;20246;-85
2022/03/01 09:57:53;;;;;;;12.43;2.72;;;;;;;14.24;64.88;102464.25;5054341;28;20078;-85
2022/03/01 10:00:18;;;;;;;6.30;2.25;;;;;;;14.45;59.67;102453.06;5033588;28;20029;-85
2022/03/01 10:02:45;;;;;;;8.07;2.35;;;;;;;14.35;63.71;102453.16;5068625;28;20099;-87
2022/03/01 10:05:12;;;;;;;8.70;2.13;;;;;;;14.53;63.57;102442.31;5034437;28;20052;-85
2022/03/01 10:07:43;;;;;;;7.70;1.83;;;;;;;14.97;63.31;102446.72;5050243;28;20051;-85
2022/03/01 10:10:16;;;;;;;5.18;3.45;;;;;;;15.27;54.21;102438.03;5027280;28;20486;-87
2022/03/01 10:12:43;;;;;;;9.65;2.85;;;;;;;14.98;63.43;102440.28;5052358;28;20089;-86
2022/03/01 10:15:10;;;;;;;6.13;1.73;;;;;;;14.94;59.18;102408.09;5046540;28;20550;-85
2022/03/01 10:17:41;;;;;;;3.63;1.65;;;;;;;15.41;60.17;102439.22;5058765;28;20527;-86
2022/03/01 10:20:12;;;;;;;6.15;1.70;;;;;;;15.55;60.69;102424.16;5032556;28;20082;-87
2022/03/01 10:22:50;;;;;;;5.07;1.70;;;;;;;15.68;58.39;102440.78;5045160;28;20391;-86
2022/03/01 10:25:18;;;;;;;12.77;2.67;;;;;;;15.85;58.76;102451.66;5048746;28;20030;-87
2022/03/01 10:27:45;;;;;;;10.00;2.65;;;;;;;16.10;52.15;102438.94;5051354;28;20044;-86
2022/03/01 10:30:11;;;;;;;18.83;2.70;;;;;;;16.21;59.65;102438.59;5043892;28;20063;-87
2022/03/01 10:32:37;;;;;;;4.68;2.33;;;;;;;16.39;53.22;102422.94;5033158;28;20045;-85
2022/03/01 10:35:05;;;;;;;8.55;2.13;;;;;;;16.14;55.92;102395.03;5053357;28;20300;-86
2022/03/01 10:37:36;;;;;;;7.78;2.22;;;;;;;16.57;54.47;102421.88;5045449;28;20086;-87
2022/03/01 10:40:15;;;;;;;2.70;1.75;;;;;;;16.74;54.66;102418.06;5034867;28;20037;-86
2022/03/01 10:42:42;;;;;;;9.88;3.22;;;;;;;16.78;46.90;102426.75;5027707;28;20049;-86
2022/03/01 10:45:09;;;;;;;2.45;1.73;;;;;;;16.49;53.15;102380.16;5045400;28;20424;-85
2022/03/01 10:47:36;;;;;;;9.15;2.17;;;;;;;16.98;48.41;102417.13;5066923;28;20051;-86
2022/03/01 10:50:06;;;;;;;7.68;2.63;;;;;;;16.75;43.48;102387.19;5081263;28;20021;-84
2022/03/01 10:52:37;;;;;;;6.63;2.47;;;;;;;16.58;45.82;102380.13;5066702;28;20086;-85
2022/03/01 10:55:04;;;;;;;5.88;3.05;;;;;;;16.69;43.33;102372.41;5025947;28;20094;-85
2022/03/01 10:57:29;;;;;;;10.70;2.72;;;;;;;16.87;46.69;102398.50;5043252;28;20128;-85
2022/03/01 10:59:55;;;;;;;6.82;1.90;;;;;;;17.41;42.16;102395.81;5026825;28;20218;-85
2022/03/01 11:02:21;;;;;;;9.05;2.20;;;;;;;17.49;41.13;102398.47;5060328;28;20497;-85
2022/03/01 11:04:48;;;;;;;8.38;2.53;;;;;;;17.45;42.96;102409.88;5035027;28;20394;-85
2022/03/01 11:07:14;;;;;;;5.03;1.83;;;;;;;17.81;44.68;102388.38;5046870;28;20037;-84
2022/03/01 11:09:40;;;;;;;18.27;3.50;;;;;;;18.20;40.43;102379.13;5049023;28;20119;-83
2022/03/01 11:12:11;;;;;;;8.07;1.98;;;;;;;18.35;39.91;102384.59;5029255;28;20138;-84
2022/03/01 11:15:01;;;;;;;5.18;1.88;;;;;;;18.37;38.40;102388.81;5034531;28;20036;-84
2022/03/01 11:17:51;;;;;;;2.58;1.48;;;;;;;18.51;38.94;102389.00;5065466;28;20158;-84
2022/03/01 11:20:26;;;;;;;6.72;1.73;;;;;;;18.87;38.84;102384.47;5057209;28;20029;-84
2022/03/01 11:23:11;;;;;;;3.70;1.90;;;;;;;18.74;34.33;102372.53;5050315;28;20075;-84
2022/03/01 11:25:42;;;;;;;4.25;1.60;;;;;;;18.68;37.49;102385.91;5048384;28;20060;-84
2022/03/01 11:28:09;;;;;;;7.47;1.85;;;;;;;18.90;38.89;102388.69;5025348;28;20067;-84
2022/03/01 11:30:51;;;;;;;6.47;2.78;;;;;;;19.37;36.91;102378.28;5032350;28;20048;-84